Ryde, United Kingdom
Current Conditions -  °F | °C
As of 4:20 PM on Monday 26 Jan 2015 (Local Time) from EGHI Reporting Station
Clear Clear  
Wind Chill: 40°   Ceiling: Unl
Heat Index: 45°   Visibility: 6mi
Dew Point: 34°   Wind: 9mph
Humidity: 66%   Direction: 310°NW
Pressure: 30.3"   Gusts: NA
Location:  50.73°N, 1.16°W
Report Text: EGHI 261620Z 31008KT 280V340 CAVOK 07/01 Q1026
Loading
Personal Weather Stations






























Interactive Weather Map New forecast layout! Learn more

10-Day Weather Forecast

Advertisements
Track Severe Weather on mobile